Dacy Airport


Codes: K0C0/
Name: Dacy Airport
City: Harvard
Country: United States
Elevation: 913 ft.

Photos at Dacy Airport


   Photos courtesy of SpottingLog. You can add your own sightings and photos by signing up for a free trial today.



No photos found.

Weather at Dacy Airport


Time (UTC)DescriptionTempratureWindCloud coverageVisibilityPressureHumidity
13-Jun-2024 00:00Broken Clouds27°C7 mph, SW68%10000m1010hPa49%
13-Jun-2024 03:00Light Rain25°C9 mph, SW79%10000m1010hPa62%
13-Jun-2024 06:00Overcast Clouds22°C13 mph, SW85%10000m1009hPa77%
13-Jun-2024 09:00Light Rain20°C11 mph, SW100%10000m1009hPa92%
13-Jun-2024 12:00Overcast Clouds20°C11 mph, SW100%10000m1009hPa91%
13-Jun-2024 15:00Clear Sky25°C16 mph, SW0%10000m1009hPa75%
13-Jun-2024 18:00Scattered Clouds28°C13 mph, W26%10000m1009hPa68%
13-Jun-2024 21:00Light Rain27°C11 mph, W100%10000m1011hPa68%
14-Jun-2024 00:00Overcast Clouds25°C9 mph, W99%10000m1010hPa76%
14-Jun-2024 03:00Broken Clouds20°C9 mph, NW69%10000m1012hPa90%
14-Jun-2024 06:00Scattered Clouds17°C9 mph, N40%10000m1014hPa78%
14-Jun-2024 09:00Clear Sky14°C9 mph, N0%10000m1015hPa83%
14-Jun-2024 12:00Clear Sky16°C7 mph, N0%10000m1016hPa84%
14-Jun-2024 15:00Clear Sky22°C4 mph, NE0%10000m1017hPa62%
14-Jun-2024 18:00Clear Sky25°C4 mph, N0%10000m1017hPa51%
14-Jun-2024 21:00Scattered Clouds25°C4 mph, N43%10000m1016hPa54%
15-Jun-2024 00:00Light Rain19°C9 mph, E68%10000m1018hPa80%
15-Jun-2024 03:00Few Clouds15°C9 mph, E19%10000m1018hPa68%
15-Jun-2024 06:00Scattered Clouds14°C7 mph, SE50%10000m1019hPa61%
15-Jun-2024 09:00Scattered Clouds13°C7 mph, SE49%10000m1019hPa63%
15-Jun-2024 12:00Broken Clouds15°C7 mph, E75%10000m1020hPa71%
15-Jun-2024 15:00Overcast Clouds21°C9 mph, SE100%10000m1019hPa58%
15-Jun-2024 18:00Overcast Clouds23°C13 mph, SE100%10000m1015hPa60%
15-Jun-2024 21:00Overcast Clouds23°C9 mph, S100%10000m1016hPa67%
16-Jun-2024 00:00Overcast Clouds22°C7 mph, SE100%10000m1014hPa74%
16-Jun-2024 03:00Overcast Clouds20°C13 mph, SE99%10000m1013hPa76%
16-Jun-2024 06:00Overcast Clouds19°C16 mph, S100%10000m1012hPa77%
16-Jun-2024 09:00Light Rain18°C18 mph, S97%10000m1010hPa88%
16-Jun-2024 12:00Light Rain19°C16 mph, S98%10000m1011hPa94%
16-Jun-2024 15:00Overcast Clouds23°C16 mph, S100%10000m1009hPa89%
16-Jun-2024 18:00Overcast Clouds29°C20 mph, SW86%10000m1008hPa67%
16-Jun-2024 21:00Scattered Clouds30°C20 mph, SW39%10000m1008hPa67%
17-Jun-2024 00:00Broken Clouds27°C16 mph, SW53%10000m1008hPa76%
17-Jun-2024 03:00Light Rain25°C11 mph, SW74%10000m1010hPa86%
17-Jun-2024 06:00Overcast Clouds23°C11 mph, SW86%10000m1011hPa94%
17-Jun-2024 09:00Overcast Clouds21°C11 mph, SW100%10000m1012hPa95%
17-Jun-2024 12:00Light Rain21°C13 mph, SW100%10000m1012hPa92%
17-Jun-2024 15:00Moderate Rain25°C16 mph, SW69%10000m1012hPa82%
17-Jun-2024 18:00Light Rain28°C20 mph, SW76%10000m1012hPa70%
17-Jun-2024 21:00Light Rain30°C16 mph, SW73%10000m1011hPa70%